createdAt,value
2018-12-29T00:02:13.100Z,95.30
2018-12-29T00:04:53.719Z,95.40
2018-12-29T00:07:35.259Z,95.40
2018-12-29T00:10:16.937Z,95.40
2018-12-29T00:12:58.615Z,95.40
2018-12-29T00:15:40.035Z,95.50
2018-12-29T00:18:21.350Z,95.50
2018-12-29T00:21:02.048Z,95.50
2018-12-29T00:23:43.584Z,95.40
2018-12-29T00:26:25.027Z,95.40
2018-12-29T00:29:06.447Z,95.40
2018-12-29T00:31:47.398Z,95.50
2018-12-29T00:34:28.403Z,95.40
2018-12-29T00:37:09.838Z,95.40
2018-12-29T00:39:50.541Z,95.60
2018-12-29T00:42:31.258Z,95.60
2018-12-29T00:45:12.037Z,95.70
2018-12-29T00:47:53.486Z,95.60
2018-12-29T00:50:34.256Z,95.70
2018-12-29T00:53:15.100Z,95.80
2018-12-29T00:55:56.390Z,95.80
2018-12-29T00:58:38.003Z,95.70
2018-12-29T01:01:18.667Z,95.70
2018-12-29T01:03:59.314Z,95.70
2018-12-29T01:06:40.010Z,95.90
2018-12-29T01:09:21.447Z,96.00
2018-12-29T01:12:02.125Z,95.80
2018-12-29T01:14:43.030Z,95.80
2018-12-29T01:17:23.854Z,95.80
2018-12-29T01:20:05.349Z,95.80
2018-12-29T01:22:46.590Z,95.90
2018-12-29T01:25:28.020Z,96.00
2018-12-29T01:28:08.737Z,96.10
2018-12-29T01:30:49.449Z,96.00
2018-12-29T01:33:30.546Z,96.00
2018-12-29T01:36:11.365Z,96.10
2018-12-29T01:38:52.669Z,96.40
2018-12-29T01:41:34.192Z,96.40
2018-12-29T01:44:15.047Z,96.30
2018-12-29T01:46:56.506Z,96.50
2018-12-29T01:49:37.236Z,96.50
2018-12-29T01:52:18.682Z,96.30
2018-12-29T01:54:59.409Z,96.40
2018-12-29T01:57:40.969Z,96.60
2018-12-29T02:00:22.364Z,96.90
2018-12-29T02:03:03.224Z,96.70
2018-12-29T02:05:43.970Z,96.70
2018-12-29T02:08:25.482Z,96.90
2018-12-29T02:11:06.271Z,96.80
2018-12-29T02:13:47.735Z,97.00
2018-12-29T02:16:28.561Z,97.10
2018-12-29T02:19:09.489Z,97.20
2018-12-29T02:21:50.602Z,97.30
2018-12-29T02:24:31.405Z,97.30
2018-12-29T02:27:12.354Z,97.80
2018-12-29T02:29:53.761Z,97.60
2018-12-29T02:32:35.385Z,97.60
2018-12-29T02:35:16.215Z,97.50
2018-12-29T02:37:57.784Z,97.40
2018-12-29T02:40:39.245Z,97.50
2018-12-29T02:43:20.737Z,98.30
2018-12-29T02:46:02.028Z,98.70
2018-12-29T02:48:42.816Z,98.30
2018-12-29T02:51:24.315Z,98.20
2018-12-29T02:54:05.053Z,98.00
2018-12-29T02:56:45.812Z,97.90
2018-12-29T02:59:27.311Z,98.60
2018-12-29T03:02:08.978Z,98.70
2018-12-29T03:04:49.800Z,99.90
2018-12-29T03:07:30.489Z,99.40
2018-12-29T03:10:11.748Z,98.90
2018-12-29T03:12:53.195Z,98.90
2018-12-29T03:15:40.892Z,98.40
2018-12-29T03:18:16.486Z,98.40
2018-12-29T03:20:57.957Z,98.70
2018-12-29T03:23:39.507Z,98.70
2018-12-29T03:26:20.192Z,98.80
2018-12-29T03:29:01.026Z,98.70
2018-12-29T03:31:41.795Z,98.70
2018-12-29T03:34:22.470Z,98.80
2018-12-29T03:37:03.993Z,98.50
2018-12-29T03:39:45.600Z,98.30
2018-12-29T03:42:26.309Z,98.40
2018-12-29T03:45:07.921Z,99.30
2018-12-29T03:47:48.706Z,99.40
2018-12-29T03:50:30.213Z,99.10
2018-12-29T03:53:11.788Z,99.90
2018-12-29T03:55:53.301Z,99.30
2018-12-29T03:58:34.046Z,98.80
2018-12-29T04:01:15.376Z,98.80
2018-12-29T04:03:56.877Z,98.80
2018-12-29T04:06:37.604Z,98.60
2018-12-29T04:09:19.165Z,98.50
2018-12-29T04:11:59.797Z,98.20
2018-12-29T04:14:41.461Z,98.70
2018-12-29T04:17:22.330Z,98.70
2018-12-29T04:20:03.035Z,98.70
2018-12-29T04:22:43.759Z,99.10
2018-12-29T04:25:25.754Z,99.90
2018-12-29T04:28:07.052Z,99.90
2018-12-29T04:30:48.687Z,99.90
2018-12-29T04:33:29.629Z,99.70
2018-12-29T04:36:10.269Z,99.40
2018-12-29T04:38:51.902Z,99.90
2018-12-29T04:41:33.518Z,99.50
2018-12-29T04:44:14.736Z,99.90
2018-12-29T04:46:55.707Z,99.40
2018-12-29T04:49:36.368Z,99.50
2018-12-29T04:52:17.806Z,99.50
2018-12-29T04:54:59.161Z,99.10
2018-12-29T04:57:40.114Z,99.10
2018-12-29T05:00:20.847Z,99.00
2018-12-29T05:03:02.411Z,98.90
2018-12-29T05:05:43.821Z,98.80
2018-12-29T05:08:24.613Z,99.10
2018-12-29T05:11:05.286Z,98.90
2018-12-29T05:13:46.730Z,99.10
2018-12-29T05:16:28.138Z,99.60
2018-12-29T05:19:08.878Z,99.90
2018-12-29T05:21:49.670Z,99.80
2018-12-29T05:24:31.037Z,99.90
2018-12-29T05:27:12.515Z,99.90
2018-12-29T05:29:53.320Z,99.80
2018-12-29T05:32:34.997Z,99.70
2018-12-29T05:35:16.606Z,99.60
2018-12-29T05:37:58.054Z,99.50
2018-12-29T05:40:39.557Z,99.20
2018-12-29T05:43:20.465Z,99.10
2018-12-29T05:46:01.857Z,99.70
2018-12-29T05:48:42.604Z,99.20
2018-12-29T05:51:23.249Z,98.80
2018-12-29T05:54:04.212Z,99.20
2018-12-29T05:56:45.619Z,99.20
2018-12-29T05:59:27.077Z,99.30
2018-12-29T06:02:07.815Z,99.40
2018-12-29T06:04:49.248Z,99.30
2018-12-29T06:07:29.938Z,99.90
2018-12-29T06:10:11.313Z,99.90
2018-12-29T06:12:52.735Z,99.90
2018-12-29T06:15:34.392Z,99.90
2018-12-29T06:18:15.106Z,99.90
2018-12-29T06:20:56.712Z,99.90
2018-12-29T06:23:38.301Z,99.90
2018-12-29T06:26:19.823Z,99.90
2018-12-29T06:29:01.409Z,99.80
2018-12-29T06:31:42.154Z,99.80
2018-12-29T06:34:22.902Z,99.90
2018-12-29T06:37:03.670Z,99.90
2018-12-29T06:39:45.301Z,99.90
2018-12-29T06:42:26.746Z,99.90
2018-12-29T06:45:08.297Z,99.90
2018-12-29T06:47:49.157Z,99.90
2018-12-29T06:50:30.623Z,99.90
2018-12-29T06:53:12.136Z,99.80
2018-12-29T06:55:53.463Z,99.90
2018-12-29T06:58:35.061Z,99.90
2018-12-29T07:01:16.344Z,99.90
2018-12-29T07:03:57.866Z,99.90
2018-12-29T07:06:39.201Z,99.90
2018-12-29T07:09:20.669Z,99.90
2018-12-29T07:12:01.469Z,99.90
2018-12-29T07:14:42.842Z,99.90
2018-12-29T07:17:23.763Z,99.90
2018-12-29T07:20:05.350Z,99.90
2018-12-29T07:22:46.728Z,99.90
2018-12-29T07:25:27.612Z,99.90
2018-12-29T07:28:09.293Z,99.90
2018-12-29T07:30:50.770Z,99.90
2018-12-29T07:33:31.593Z,99.90
2018-12-29T07:36:12.274Z,99.90
2018-12-29T07:38:52.991Z,99.90
2018-12-29T07:41:34.460Z,99.90
2018-12-29T07:44:15.198Z,99.90
2018-12-29T07:46:56.440Z,99.90
2018-12-29T07:49:37.993Z,99.90
2018-12-29T07:52:19.354Z,99.90
2018-12-29T07:55:00.244Z,99.90
2018-12-29T07:57:40.935Z,99.90
2018-12-29T08:00:21.883Z,99.90
2018-12-29T08:03:03.344Z,99.90
2018-12-29T08:05:44.081Z,99.90
2018-12-29T08:08:25.642Z,99.90
2018-12-29T08:11:06.312Z,99.90
2018-12-29T08:13:46.955Z,99.90
2018-12-29T08:16:28.526Z,99.90
2018-12-29T08:19:09.790Z,99.90
2018-12-29T08:21:50.494Z,99.90
2018-12-29T08:24:32.086Z,99.90
2018-12-29T08:27:13.106Z,99.90
2018-12-29T08:29:53.860Z,99.90
2018-12-29T08:32:34.753Z,99.90
2018-12-29T08:35:16.118Z,99.90
2018-12-29T08:37:56.821Z,99.90
2018-12-29T08:40:38.338Z,99.90
2018-12-29T08:43:19.926Z,99.90
2018-12-29T08:46:01.504Z,99.90
2018-12-29T08:48:42.411Z,99.90
2018-12-29T08:51:23.626Z,99.90
2018-12-29T08:54:05.171Z,99.90
2018-12-29T08:56:46.084Z,99.90
2018-12-29T08:59:26.982Z,99.90
2018-12-29T09:02:08.686Z,99.90
2018-12-29T09:04:50.038Z,99.90
2018-12-29T09:07:30.934Z,99.90
2018-12-29T09:10:11.772Z,99.90
2018-12-29T09:12:52.977Z,99.90
2018-12-29T09:15:34.354Z,99.90
2018-12-29T09:18:15.946Z,99.90
2018-12-29T09:20:56.633Z,99.90
2018-12-29T09:23:38.205Z,99.90
2018-12-29T09:26:18.941Z,99.90
2018-12-29T09:28:59.640Z,99.90
2018-12-29T09:31:40.291Z,99.90
2018-12-29T09:34:22.547Z,99.90
2018-12-29T09:37:03.654Z,99.90
2018-12-29T09:39:45.215Z,99.90
2018-12-29T09:42:26.742Z,99.90
2018-12-29T09:45:07.597Z,99.90
2018-12-29T09:47:49.205Z,99.90
2018-12-29T09:50:30.857Z,99.90
2018-12-29T09:53:11.553Z,99.90
2018-12-29T09:55:52.862Z,99.90
2018-12-29T09:58:34.426Z,99.90
2018-12-29T10:01:15.951Z,99.90
2018-12-29T10:03:56.722Z,99.90
2018-12-29T10:06:37.713Z,99.90
2018-12-29T10:12:38.704Z,99.90
2018-12-29T10:15:20.198Z,99.90
2018-12-29T10:18:00.829Z,99.90
2018-12-29T10:20:42.270Z,99.90
2018-12-29T10:23:23.137Z,99.90
2018-12-29T10:26:04.018Z,99.90
2018-12-29T10:28:45.644Z,99.90
2018-12-29T10:31:26.794Z,99.90
2018-12-29T10:34:07.433Z,99.90
2018-12-29T10:36:49.018Z,99.90
2018-12-29T10:39:30.301Z,99.90
2018-12-29T10:42:11.745Z,99.90
2018-12-29T10:44:52.488Z,99.90
2018-12-29T10:47:34.641Z,99.90
2018-12-29T10:50:15.897Z,99.90
2018-12-29T10:52:57.451Z,99.90
2018-12-29T10:55:38.069Z,99.90
2018-12-29T10:58:18.912Z,99.90
2018-12-29T11:01:00.324Z,99.90
2018-12-29T11:03:41.197Z,99.90
2018-12-29T11:06:21.926Z,99.90
2018-12-29T11:09:04.772Z,99.90
2018-12-29T11:11:46.029Z,99.90
2018-12-29T11:14:27.490Z,99.90
2018-12-29T11:17:08.557Z,99.90
2018-12-29T11:19:49.410Z,99.90
2018-12-29T11:22:30.228Z,99.90
2018-12-29T11:25:11.665Z,99.90
2018-12-29T11:27:52.850Z,99.90
2018-12-29T11:30:34.417Z,99.90
2018-12-29T11:33:15.303Z,99.90
2018-12-29T11:35:56.752Z,99.90
2018-12-29T11:38:37.741Z,99.90
2018-12-29T11:41:18.691Z,99.90
2018-12-29T11:44:00.266Z,99.90
2018-12-29T11:46:40.906Z,99.90
2018-12-29T11:49:21.615Z,99.90
2018-12-29T11:52:02.405Z,99.90
2018-12-29T11:54:43.852Z,99.90
2018-12-29T11:57:25.274Z,99.90
2018-12-29T12:00:08.321Z,99.90
2018-12-29T12:02:49.414Z,99.90
2018-12-29T12:05:30.877Z,99.90
2018-12-29T12:08:11.900Z,99.90
2018-12-29T12:10:52.765Z,99.90
2018-12-29T12:13:34.252Z,99.90
2018-12-29T12:16:15.112Z,99.90
2018-12-29T12:18:56.723Z,99.90
2018-12-29T12:21:37.514Z,99.90
2018-12-29T12:27:12.489Z,99.90
2018-12-29T12:29:54.159Z,99.90
2018-12-29T12:32:35.110Z,99.90
2018-12-29T12:35:16.625Z,99.90
2018-12-29T12:37:57.285Z,99.90
2018-12-29T12:40:38.969Z,99.90
2018-12-29T12:43:20.581Z,99.90
2018-12-29T12:46:02.315Z,99.90
2018-12-29T12:48:43.766Z,99.90
2018-12-29T12:51:25.247Z,99.90
2018-12-29T12:54:06.846Z,99.90
2018-12-29T12:56:48.361Z,99.90
2018-12-29T12:59:30.250Z,99.90
2018-12-29T13:02:11.769Z,99.90
2018-12-29T13:04:53.286Z,99.90
2018-12-29T13:07:34.926Z,99.90
2018-12-29T13:10:16.380Z,99.90
2018-12-29T13:12:57.753Z,99.90
2018-12-29T13:15:38.427Z,99.90
2018-12-29T13:18:19.780Z,99.90
2018-12-29T13:21:02.936Z,99.90
2018-12-29T13:23:43.754Z,99.90
2018-12-29T13:26:24.490Z,99.90
2018-12-29T13:29:06.045Z,99.90
2018-12-29T13:31:47.522Z,99.90
2018-12-29T13:34:28.158Z,99.90
2018-12-29T13:37:09.048Z,99.90
2018-12-29T13:39:50.726Z,99.90
2018-12-29T13:42:31.542Z,99.90
2018-12-29T13:45:12.246Z,99.90
2018-12-29T13:47:52.881Z,99.90
2018-12-29T13:50:34.334Z,99.90
2018-12-29T13:53:15.842Z,99.90
2018-12-29T13:55:57.326Z,99.90
2018-12-29T13:58:38.178Z,99.90
2018-12-29T14:01:19.788Z,99.90
2018-12-29T14:04:00.408Z,99.90
2018-12-29T14:06:41.513Z,99.90
2018-12-29T14:09:22.490Z,99.90
2018-12-29T14:12:03.265Z,99.90
2018-12-29T14:14:43.955Z,99.90
2018-12-29T14:17:24.773Z,99.90
2018-12-29T14:20:06.278Z,99.90
2018-12-29T14:22:47.986Z,99.90
2018-12-29T14:25:28.577Z,99.90
2018-12-29T14:28:10.267Z,99.90
2018-12-29T14:30:50.912Z,99.90
2018-12-29T14:33:32.472Z,99.90
2018-12-29T14:36:13.145Z,99.90
2018-12-29T14:38:54.738Z,99.90
2018-12-29T14:41:36.218Z,99.90
2018-12-29T14:44:16.907Z,99.90
2018-12-29T14:46:57.724Z,99.90
2018-12-29T14:49:39.315Z,99.90
2018-12-29T14:52:20.727Z,99.90
2018-12-29T14:55:01.403Z,99.90
2018-12-29T14:57:42.816Z,99.90
2018-12-29T15:00:24.399Z,99.90
2018-12-29T15:03:05.891Z,99.90
2018-12-29T15:05:47.249Z,99.90
2018-12-29T15:08:28.001Z,99.90
2018-12-29T15:11:08.662Z,99.90
2018-12-29T15:13:49.686Z,99.90
2018-12-29T15:16:31.309Z,99.90
2018-12-29T15:19:12.016Z,99.90
2018-12-29T15:21:52.734Z,99.90
2018-12-29T15:24:33.569Z,99.90
2018-12-29T15:27:14.600Z,99.90
2018-12-29T15:29:56.130Z,99.90
2018-12-29T15:32:36.999Z,99.90
2018-12-29T15:35:18.062Z,99.90
2018-12-29T15:37:59.059Z,99.90
2018-12-29T15:40:40.596Z,99.90
2018-12-29T15:43:21.586Z,99.90
2018-12-29T15:46:02.201Z,99.90
2018-12-29T15:48:50.926Z,99.90
2018-12-29T15:51:26.541Z,99.90
2018-12-29T15:54:08.013Z,99.90
2018-12-29T15:56:49.366Z,99.90
2018-12-29T15:59:30.390Z,99.90
2018-12-29T16:02:11.157Z,99.90
2018-12-29T16:04:52.618Z,99.90
2018-12-29T16:07:33.305Z,99.90
2018-12-29T16:10:14.050Z,99.90
2018-12-29T16:12:54.827Z,99.90
2018-12-29T16:15:36.653Z,99.90
2018-12-29T16:18:18.394Z,99.90
2018-12-29T16:20:59.601Z,99.90
2018-12-29T16:23:40.326Z,99.90
2018-12-29T16:26:21.921Z,99.90
2018-12-29T16:29:02.748Z,99.90
2018-12-29T16:31:43.319Z,99.90
2018-12-29T16:34:24.847Z,99.90
2018-12-29T16:37:06.409Z,99.90
2018-12-29T16:39:47.993Z,99.90
2018-12-29T16:42:29.060Z,99.90
2018-12-29T16:45:09.909Z,99.90
2018-12-29T16:47:51.356Z,99.90
2018-12-29T16:50:32.118Z,99.90
2018-12-29T16:53:13.587Z,99.90
2018-12-29T16:55:54.421Z,99.90
2018-12-29T16:58:35.387Z,99.90
2018-12-29T17:01:16.857Z,99.90
2018-12-29T17:03:58.173Z,99.90
2018-12-29T17:06:39.664Z,99.90
2018-12-29T17:09:20.327Z,99.90
2018-12-29T17:12:01.762Z,99.90
2018-12-29T17:14:42.618Z,99.90
2018-12-29T17:17:23.487Z,99.90
2018-12-29T17:20:05.047Z,99.90
2018-12-29T17:22:46.553Z,99.90
2018-12-29T17:25:28.263Z,99.90
2018-12-29T17:28:08.976Z,99.90
2018-12-29T17:30:49.667Z,99.90
2018-12-29T17:33:31.325Z,99.90
2018-12-29T17:36:12.714Z,99.90
2018-12-29T17:38:54.210Z,99.90
2018-12-29T17:41:35.674Z,99.90
2018-12-29T17:44:16.895Z,99.90
2018-12-29T17:46:57.546Z,99.90
2018-12-29T17:49:38.434Z,99.90
2018-12-29T17:52:19.230Z,99.90
2018-12-29T17:55:00.466Z,99.90
2018-12-29T17:57:41.847Z,99.90
2018-12-29T18:00:23.193Z,99.90
2018-12-29T18:03:04.730Z,99.90
2018-12-29T18:05:45.454Z,99.90
2018-12-29T18:08:26.847Z,99.90
2018-12-29T18:11:07.731Z,99.90
2018-12-29T18:13:49.307Z,99.90
2018-12-29T18:16:30.810Z,99.90
2018-12-29T18:19:12.321Z,99.90
2018-12-29T18:21:54.545Z,99.90
2018-12-29T18:24:36.139Z,99.90
2018-12-29T18:27:18.265Z,99.90
2018-12-29T18:30:00.156Z,99.90
2018-12-29T18:32:41.506Z,99.90
2018-12-29T18:35:22.767Z,99.90
2018-12-29T18:38:03.893Z,99.90
2018-12-29T18:40:45.017Z,99.90
2018-12-29T18:43:26.585Z,99.90
2018-12-29T18:46:08.026Z,99.90
2018-12-29T18:48:49.354Z,99.90
2018-12-29T18:51:30.844Z,99.90
2018-12-29T18:54:12.373Z,99.90
2018-12-29T18:56:54.023Z,99.90
2018-12-29T18:59:35.503Z,99.90
2018-12-29T19:02:16.317Z,99.90
2018-12-29T19:04:57.622Z,99.90
2018-12-29T19:07:39.490Z,99.90
2018-12-29T19:10:20.977Z,99.90
2018-12-29T19:13:02.506Z,99.90
2018-12-29T19:15:44.036Z,99.90
2018-12-29T19:18:24.822Z,99.90
2018-12-29T19:21:06.362Z,99.90
2018-12-29T19:23:48.369Z,99.90
2018-12-29T19:26:29.678Z,99.90
2018-12-29T19:29:11.205Z,99.90
2018-12-29T19:31:52.580Z,99.90
2018-12-29T19:34:33.600Z,99.90
2018-12-29T19:37:15.292Z,99.90
2018-12-29T19:39:57.040Z,99.90
2018-12-29T19:42:37.717Z,99.90
2018-12-29T19:45:18.675Z,99.90
2018-12-29T19:48:00.208Z,99.90
2018-12-29T19:50:41.668Z,99.90
2018-12-29T19:53:24.254Z,99.90
2018-12-29T19:56:05.093Z,99.90
2018-12-29T19:58:46.733Z,99.90
2018-12-29T20:01:27.853Z,99.90
2018-12-29T20:04:09.619Z,99.90
2018-12-29T20:06:51.250Z,99.90
2018-12-29T20:09:32.803Z,99.90
2018-12-29T20:12:14.072Z,99.90
2018-12-29T20:14:55.041Z,99.90
2018-12-29T20:17:36.237Z,99.90
2018-12-29T20:20:17.438Z,99.90
2018-12-29T20:22:59.026Z,99.90
2018-12-29T20:25:40.496Z,99.90
2018-12-29T20:28:21.898Z,99.90
2018-12-29T20:31:02.910Z,99.90
2018-12-29T20:33:44.245Z,99.90
2018-12-29T20:36:26.309Z,99.90
2018-12-29T20:39:07.485Z,99.90
2018-12-29T20:41:49.537Z,99.90
2018-12-29T20:44:31.072Z,99.90
2018-12-29T20:47:12.870Z,99.90
2018-12-29T20:49:53.672Z,99.90
2018-12-29T20:52:35.220Z,99.90
2018-12-29T20:55:16.055Z,99.90
2018-12-29T20:57:57.529Z,99.90
2018-12-29T21:00:38.308Z,99.90
2018-12-29T21:03:19.814Z,99.90
2018-12-29T21:06:01.447Z,99.90
2018-12-29T21:08:42.870Z,99.90
2018-12-29T21:11:24.224Z,99.90
2018-12-29T21:14:05.563Z,99.90
2018-12-29T21:16:47.186Z,99.90
2018-12-29T21:19:27.859Z,99.90
2018-12-29T21:22:08.585Z,99.90
2018-12-29T21:24:50.014Z,99.90
2018-12-29T21:27:30.936Z,99.90
2018-12-29T21:30:11.753Z,99.90
2018-12-29T21:32:52.561Z,99.90
2018-12-29T21:35:33.247Z,99.90
2018-12-29T21:38:13.962Z,99.90
2018-12-29T21:40:54.635Z,99.90
2018-12-29T21:43:35.565Z,99.90
2018-12-29T21:46:16.993Z,99.90
2018-12-29T21:48:58.700Z,99.90
2018-12-29T21:51:40.267Z,99.90
2018-12-29T21:54:21.713Z,99.90
2018-12-29T21:57:02.457Z,99.90
2018-12-29T21:59:44.008Z,99.90
2018-12-29T22:02:24.829Z,99.90
2018-12-29T22:05:06.284Z,99.90
2018-12-29T22:07:47.702Z,99.90
2018-12-29T22:10:28.457Z,99.90
2018-12-29T22:13:10.037Z,99.90
2018-12-29T22:15:51.490Z,99.90
2018-12-29T22:18:32.406Z,99.90
2018-12-29T22:21:13.028Z,99.90
2018-12-29T22:23:54.470Z,99.90
2018-12-29T22:26:36.046Z,99.90
2018-12-29T22:29:17.690Z,99.90
2018-12-29T22:31:58.337Z,99.90
2018-12-29T22:34:39.071Z,99.90
2018-12-29T22:37:20.434Z,99.90
2018-12-29T22:40:01.192Z,99.90
2018-12-29T22:42:42.597Z,99.90
2018-12-29T22:45:24.485Z,99.90
2018-12-29T22:48:05.198Z,99.90
2018-12-29T22:50:45.853Z,99.90
2018-12-29T22:53:27.119Z,99.90
2018-12-29T22:56:08.555Z,99.90
2018-12-29T22:58:49.852Z,99.90
2018-12-29T23:01:31.406Z,99.90
2018-12-29T23:04:12.209Z,99.90
2018-12-29T23:06:53.034Z,99.90
2018-12-29T23:09:34.541Z,99.90
2018-12-29T23:12:15.265Z,99.90
2018-12-29T23:14:56.187Z,99.90
2018-12-29T23:17:36.960Z,99.90
2018-12-29T23:20:17.727Z,99.90
2018-12-29T23:22:59.303Z,99.90
2018-12-29T23:25:40.038Z,99.90
2018-12-29T23:28:20.655Z,99.90
2018-12-29T23:31:02.246Z,99.90
2018-12-29T23:33:43.694Z,99.90
2018-12-29T23:36:25.333Z,99.90
2018-12-29T23:39:06.233Z,99.90
2018-12-29T23:41:46.912Z,99.90
2018-12-29T23:44:28.361Z,99.90
2018-12-29T23:47:09.803Z,99.90
2018-12-29T23:49:51.123Z,99.90
2018-12-29T23:52:32.465Z,99.90
2018-12-29T23:55:14.014Z,99.90
2018-12-29T23:57:54.864Z,99.90
